Coral Princess — ZCDF4 — position and weather

sailwx.info

Track history (hours):
 
Tides and Currents Weather Stations Pressure Air Temp Water Temp Dewpoint Dewpoint Depression Visibility Wind Speed Wind Dir Waves Ship Positions

Coral Princess

Operator: Princess Cruises

Last reported at 2017-Sep-22 14:00 UTC. Time now 2017-Sep-23 02:22 UTC.
Position N 52°00' W 129°42'.

Type: Passenger vessel. MMSI: 310376000.

Wind from 320 at 8 knots

Barometer 1022.4 mb
Air temperature 13.0 ° C
Visibility: greater than 5.4 NM
Dewpoint 11.1 ° C
Water temperature 14.0 ° C

Date/timePositionNaut miles runAvg speedWind from/ knotsBaromVisibWave heightAir tempDewpointWater temp
2017-Sep-22 14:00N 52°00' W 129°42'9816.4 320 / 81022.4 5.4 13.011.114.0
2017-Sep-22 08:00N 53°30' W 130°48'149 6.2 330 / 151021.410.8 11.0 9.010.0
2017-Sep-21 08:00N 54°42' W 134°30'18090.1 010 / 161020.410.8 11.0 9.0 8.0
2017-Sep-21 06:00N 57°42' W 134°48'30 0.6 290 / 141018.010.8 12.010.1 9.0
2017-Sep-19 05:20N 58°09' W 135°15'4 9.7
2017-Sep-19 04:53N 58°11' W 135°22'410.8
2017-Sep-19 04:29N 58°13' W 135°29'511.4
2017-Sep-19 04:00N 58°16' W 135°38'511.3
2017-Sep-19 03:31N 58°18' W 135°48'611.4
2017-Sep-19 03:00N 58°21' W 135°57'612.4
2017-Sep-19 02:30N 58°27' W 136°01'917.1
2017-Sep-19 02:00N 58°35' W 136°04'918.2
2017-Sep-19 01:30N 58°43' W 136°14'1018.4
2017-Sep-19 00:59N 58°49' W 136°28'4 0.8
2017-Sep-18 20:15N 58°51' W 136°34'719.1
2017-Sep-18 19:52N 58°47' W 136°22'718.7
2017-Sep-18 19:30N 58°42' W 136°13'918.3
2017-Sep-18 19:00N 58°34' W 136°03'918.3
2017-Sep-18 18:30N 58°26' W 135°58'612.3
2017-Sep-18 18:00N 58°20' W 135°56'815.7
2017-Sep-18 17:30N 58°17' W 135°42'13217.5
2017-Sep-18 10:00N 56°12' W 134°24'15015.7 010 / 91004.410.8 12.0 7.910.0
2017-Sep-18 00:25N 54°22' W 131°25'820.2
2017-Sep-18 00:01N 54°20' W 131°11'918.7
2017-Sep-17 23:31N 54°12' W 131°02'1120.3
2017-Sep-17 22:59N 54°02' W 130°59'919.7
2017-Sep-17 22:31N 53°52' W 130°56'6124.4
2017-Sep-17 20:00N 52°54' W 130°24'7416.6 250 / 251003.410.8 12.0 5.613.0
2017-Sep-17 15:30N 51°47' W 129°32'919.2
2017-Sep-17 15:01N 51°40' W 129°20'1019.5
2017-Sep-17 14:31N 51°35' W 129°07'1020.3
2017-Sep-17 14:01N 51°30' W 128°53'1020.8
2017-Sep-17 13:30N 51°24' W 128°39'1120.7
2017-Sep-17 13:00N 51°18' W 128°25'1021.0
2017-Sep-17 12:31N 51°11' W 128°13'1021.0
2017-Sep-17 12:01N 51°05' W 127°60'1019.3
2017-Sep-17 11:30N 50°59' W 127°47'815.9
2017-Sep-17 11:01N 50°54' W 127°38'1121.8
2017-Sep-17 10:30N 50°49' W 127°23'1121.5
2017-Sep-17 10:00N 50°44' W 127°07'1020.8
2017-Sep-17 09:30N 50°40' W 126°52'918.4
2017-Sep-17 09:00N 50°34' W 126°41'815.6
2017-Sep-17 08:29N 50°30' W 126°30'3119.2
2017-Sep-17 06:54N 50°22' W 125°44'818.6
2017-Sep-17 06:29N 50°21' W 125°32'714.2
2017-Sep-17 06:00N 50°17' W 125°24'816.2
2017-Sep-17 05:30N 50°09' W 125°21'611.9
2017-Sep-17 05:00N 50°04' W 125°15'611.2
2017-Sep-17 04:30N 49°59' W 125°12'917.1
2017-Sep-17 04:00N 49°53' W 125°02'1121.4
2017-Sep-17 03:30N 49°47' W 124°48'1121.7
2017-Sep-17 03:00N 49°40' W 124°36'1122.2
2017-Sep-17 02:30N 49°33' W 124°22'1121.2
2017-Sep-17 02:00N 49°28' W 124°08'1121.8
2017-Sep-17 01:30N 49°25' W 123°52'1121.7
2017-Sep-17 01:00N 49°21' W 123°36'1020.4
2017-Sep-17 00:30N 49°19' W 123°21'816.1
2017-Sep-17 00:01N 49°19' W 123°08'2 3.9
2017-Sep-16 23:29N 49°17' W 123°06'0 0.0
2017-Sep-16 22:59N 49°17' W 123°06'0 0.0
2017-Sep-16 22:29N 49°17' W 123°06'0 0.0
2017-Sep-16 21:59N 49°17' W 123°06'0 0.0
2017-Sep-16 21:29N 49°17' W 123°06'0 0.0
2017-Sep-16 20:59N 49°17' W 123°06'0 0.0
2017-Sep-16 20:29N 49°17' W 123°06'0 0.0
2017-Sep-16 19:59N 49°17' W 123°06'0 0.0
2017-Sep-16 19:29N 49°17' W 123°06'0 0.0
2017-Sep-16 18:59N 49°17' W 123°06'0 0.0
2017-Sep-16 18:29N 49°17' W 123°06'0 0.0
2017-Sep-16 17:59N 49°17' W 123°06'0 0.0
2017-Sep-16 17:29N 49°17' W 123°06'0 0.0
2017-Sep-16 16:59N 49°17' W 123°06'0 0.0
2017-Sep-16 16:29N 49°17' W 123°06'0 0.0
2017-Sep-16 15:59N 49°17' W 123°06'0 0.0
2017-Sep-16 15:29N 49°17' W 123°06'0 0.0
2017-Sep-16 14:59N 49°17' W 123°06'0 0.0
2017-Sep-16 14:29N 49°17' W 123°06'0 0.0
2017-Sep-16 14:00N 49°17' W 123°06'0 0.2
2017-Sep-16 13:30N 49°17' W 123°06'4 7.4
2017-Sep-16 13:00N 49°19' W 123°12'611.9
2017-Sep-16 12:30N 49°19' W 123°21'611.6
2017-Sep-16 12:00N 49°20' W 123°29'611.7
2017-Sep-16 11:30N 49°21' W 123°38'611.7
2017-Sep-16 11:00N 49°21' W 123°47'611.9
2017-Sep-16 10:30N 49°22' W 123°56'611.7
2017-Sep-16 10:00N 49°23' W 124°05'611.8
2017-Sep-16 09:30N 49°24' W 124°14'611.2
2017-Sep-16 09:00N 49°26' W 124°22'611.1
2017-Sep-16 08:30N 49°29' W 124°29'611.4
2017-Sep-16 08:00N 49°34' W 124°34'611.5
2017-Sep-16 07:30N 49°39' W 124°40'611.3
2017-Sep-16 07:00N 49°43' W 124°45'611.2
2017-Sep-16 06:30N 49°47' W 124°51'611.2
2017-Sep-16 06:00N 49°51' W 124°58'510.4
2017-Sep-16 05:30N 49°54' W 125°04'5 9.7
2017-Sep-16 05:00N 49°58' W 125°09'611.3
2017-Sep-16 04:30N 50°02' W 125°14'612.4
2017-Sep-16 04:00N 50°07' W 125°20'611.9
2017-Sep-16 03:30N 50°13' W 125°23'714.8
2017-Sep-16 03:00N 50°20' W 125°26'813.9
2017-Sep-16 02:28N 50°23' W 125°37'713.9
2017-Sep-16 02:00N 50°23' W 125°47'1514.5
2017-Sep-16 00:56N 50°28' W 126°10'1217.3
2017-Sep-16 00:13N 50°30' W 126°29'716.7
2017-Sep-15 23:49N 50°32' W 126°39'412.0
2017-Sep-15 23:30N 50°35' W 126°42'816.4
2017-Sep-15 22:59N 50°41' W 126°52'918.4
2017-Sep-15 22:30N 50°44' W 127°05'917.9
2017-Sep-15 22:00N 50°47' W 127°18'918.0
2017-Sep-15 21:30N 50°51' W 127°31'918.0
2017-Sep-15 21:01N 50°56' W 127°42'713.8
2017-Sep-15 20:30N 51°01' W 127°51'713.2
2017-Sep-15 20:00N 51°05' W 127°59'713.5
2017-Sep-15 19:30N 51°09' W 128°07'713.4
2017-Sep-15 19:00N 51°13' W 128°16'713.1
2017-Sep-15 18:30N 51°17' W 128°24'713.1
2017-Sep-15 18:01N 51°21' W 128°33'713.2
2017-Sep-15 17:30N 51°24' W 128°42'714.2
2017-Sep-15 17:00N 51°28' W 128°51'815.6
2017-Sep-15 16:31N 51°32' W 129°02'815.9
2017-Sep-15 16:00N 51°37' W 129°13'816.0
2017-Sep-15 15:31N 51°41' W 129°23'714.7
2017-Sep-15 15:00N 51°46' W 129°32'715.1
2017-Sep-15 14:30N 51°53' W 129°37'915.1
2017-Sep-15 13:55N 52°01' W 129°43'815.4
2017-Sep-15 13:25N 52°08' W 129°48'716.0
2017-Sep-15 12:58N 52°15' W 129°53'919.0
2017-Sep-15 12:30N 52°23' W 129°59'918.8
2017-Sep-15 12:00N 52°31' W 130°05'918.9
2017-Sep-15 11:30N 52°40' W 130°12'1019.1
2017-Sep-15 11:00N 52°49' W 130°18'1019.2
2017-Sep-15 10:30N 52°57' W 130°25'1919.3
2017-Sep-15 09:31N 53°15' W 130°38'022.0
2017-Sep-15 09:30N 53°15' W 130°38'1019.8
2017-Sep-15 09:00N 53°24' W 130°45'1019.8
2017-Sep-15 08:30N 53°33' W 130°50'1019.8
2017-Sep-15 08:00N 53°43' W 130°53'8522.6
2017-Sep-15 08:00N 53°36' W 130°48'1736.2 300 / 251018.510.8 11.0 9.013.0
2017-Sep-15 07:31N 53°53' W 130°56'1019.5
2017-Sep-15 07:00N 54°02' W 130°59'1019.2
2017-Sep-15 06:30N 54°12' W 131°02'918.9
2017-Sep-15 06:01N 54°21' W 131°07'918.6
2017-Sep-15 05:30N 54°29' W 131°14'1018.0
2017-Sep-15 04:58N 54°39' W 131°16'918.8
2017-Sep-15 04:30N 54°47' W 131°12'918.8
2017-Sep-15 04:00N 54°56' W 131°08'  
Track history (hours):
 
Tides and Currents Weather Stations Pressure Air Temp Water Temp Dewpoint Dewpoint Depression Visibility Wind Speed Wind Dir Waves Ship Positions

Coral Princess

Operator: Princess Cruises

Last reported at 2017-Sep-22 14:00 UTC. Time now 2017-Sep-23 02:22 UTC.
Position N 52°00' W 129°42'.

Type: Passenger vessel. MMSI: 310376000.

Wind from 320 at 8 knots

Barometer 1022.4 mb
Air temperature 13.0 ° C
Visibility: greater than 5.4 NM
Dewpoint 11.1 ° C
Water temperature 14.0 ° C

Date/timePositionNaut miles runAvg speedWind from/ knotsBaromVisibWave heightAir tempDewpointWater temp
2017-Sep-22 14:00N 52°00' W 129°42'9816.4 320 / 81022.4 5.4 13.011.114.0
2017-Sep-22 08:00N 53°30' W 130°48'149 6.2 330 / 151021.410.8 11.0 9.010.0
2017-Sep-21 08:00N 54°42' W 134°30'18090.1 010 / 161020.410.8 11.0 9.0 8.0
2017-Sep-21 06:00N 57°42' W 134°48'30 0.6 290 / 141018.010.8 12.010.1 9.0
2017-Sep-19 05:20N 58°09' W 135°15'4 9.7
2017-Sep-19 04:53N 58°11' W 135°22'410.8
2017-Sep-19 04:29N 58°13' W 135°29'511.4
2017-Sep-19 04:00N 58°16' W 135°38'511.3
2017-Sep-19 03:31N 58°18' W 135°48'611.4
2017-Sep-19 03:00N 58°21' W 135°57'612.4
2017-Sep-19 02:30N 58°27' W 136°01'917.1
2017-Sep-19 02:00N 58°35' W 136°04'918.2
2017-Sep-19 01:30N 58°43' W 136°14'1018.4
2017-Sep-19 00:59N 58°49' W 136°28'4 0.8
2017-Sep-18 20:15N 58°51' W 136°34'719.1
2017-Sep-18 19:52N 58°47' W 136°22'718.7
2017-Sep-18 19:30N 58°42' W 136°13'918.3
2017-Sep-18 19:00N 58°34' W 136°03'918.3
2017-Sep-18 18:30N 58°26' W 135°58'612.3
2017-Sep-18 18:00N 58°20' W 135°56'815.7
2017-Sep-18 17:30N 58°17' W 135°42'13217.5
2017-Sep-18 10:00N 56°12' W 134°24'15015.7 010 / 91004.410.8 12.0 7.910.0
2017-Sep-18 00:25N 54°22' W 131°25'820.2
2017-Sep-18 00:01N 54°20' W 131°11'918.7
2017-Sep-17 23:31N 54°12' W 131°02'1120.3
2017-Sep-17 22:59N 54°02' W 130°59'919.7
2017-Sep-17 22:31N 53°52' W 130°56'6124.4
2017-Sep-17 20:00N 52°54' W 130°24'7416.6 250 / 251003.410.8 12.0 5.613.0
2017-Sep-17 15:30N 51°47' W 129°32'919.2
2017-Sep-17 15:01N 51°40' W 129°20'1019.5
2017-Sep-17 14:31N 51°35' W 129°07'1020.3
2017-Sep-17 14:01N 51°30' W 128°53'1020.8
2017-Sep-17 13:30N 51°24' W 128°39'1120.7
2017-Sep-17 13:00N 51°18' W 128°25'1021.0
2017-Sep-17 12:31N 51°11' W 128°13'1021.0
2017-Sep-17 12:01N 51°05' W 127°60'1019.3
2017-Sep-17 11:30N 50°59' W 127°47'815.9
2017-Sep-17 11:01N 50°54' W 127°38'1121.8
2017-Sep-17 10:30N 50°49' W 127°23'1121.5
2017-Sep-17 10:00N 50°44' W 127°07'1020.8
2017-Sep-17 09:30N 50°40' W 126°52'918.4
2017-Sep-17 09:00N 50°34' W 126°41'815.6
2017-Sep-17 08:29N 50°30' W 126°30'3119.2
2017-Sep-17 06:54N 50°22' W 125°44'818.6
2017-Sep-17 06:29N 50°21' W 125°32'714.2
2017-Sep-17 06:00N 50°17' W 125°24'816.2
2017-Sep-17 05:30N 50°09' W 125°21'611.9
2017-Sep-17 05:00N 50°04' W 125°15'611.2
2017-Sep-17 04:30N 49°59' W 125°12'917.1
2017-Sep-17 04:00N 49°53' W 125°02'1121.4
2017-Sep-17 03:30N 49°47' W 124°48'1121.7
2017-Sep-17 03:00N 49°40' W 124°36'1122.2
2017-Sep-17 02:30N 49°33' W 124°22'1121.2
2017-Sep-17 02:00N 49°28' W 124°08'1121.8
2017-Sep-17 01:30N 49°25' W 123°52'1121.7
2017-Sep-17 01:00N 49°21' W 123°36'1020.4
2017-Sep-17 00:30N 49°19' W 123°21'816.1
2017-Sep-17 00:01N 49°19' W 123°08'2 3.9
2017-Sep-16 23:29N 49°17' W 123°06'0 0.0
2017-Sep-16 22:59N 49°17' W 123°06'0 0.0
2017-Sep-16 22:29N 49°17' W 123°06'0 0.0
2017-Sep-16 21:59N 49°17' W 123°06'0 0.0
2017-Sep-16 21:29N 49°17' W 123°06'0 0.0
2017-Sep-16 20:59N 49°17' W 123°06'0 0.0
2017-Sep-16 20:29N 49°17' W 123°06'0 0.0
2017-Sep-16 19:59N 49°17' W 123°06'0 0.0
2017-Sep-16 19:29N 49°17' W 123°06'0 0.0
2017-Sep-16 18:59N 49°17' W 123°06'0 0.0
2017-Sep-16 18:29N 49°17' W 123°06'0 0.0
2017-Sep-16 17:59N 49°17' W 123°06'0 0.0
2017-Sep-16 17:29N 49°17' W 123°06'0 0.0
2017-Sep-16 16:59N 49°17' W 123°06'0 0.0
2017-Sep-16 16:29N 49°17' W 123°06'0 0.0
2017-Sep-16 15:59N 49°17' W 123°06'0 0.0
2017-Sep-16 15:29N 49°17' W 123°06'0 0.0
2017-Sep-16 14:59N 49°17' W 123°06'0 0.0
2017-Sep-16 14:29N 49°17' W 123°06'0 0.0
2017-Sep-16 14:00N 49°17' W 123°06'0 0.2
2017-Sep-16 13:30N 49°17' W 123°06'4 7.4
2017-Sep-16 13:00N 49°19' W 123°12'611.9
2017-Sep-16 12:30N 49°19' W 123°21'611.6
2017-Sep-16 12:00N 49°20' W 123°29'611.7
2017-Sep-16 11:30N 49°21' W 123°38'611.7
2017-Sep-16 11:00N 49°21' W 123°47'611.9
2017-Sep-16 10:30N 49°22' W 123°56'611.7
2017-Sep-16 10:00N 49°23' W 124°05'611.8
2017-Sep-16 09:30N 49°24' W 124°14'611.2
2017-Sep-16 09:00N 49°26' W 124°22'611.1
2017-Sep-16 08:30N 49°29' W 124°29'611.4
2017-Sep-16 08:00N 49°34' W 124°34'611.5
2017-Sep-16 07:30N 49°39' W 124°40'611.3
2017-Sep-16 07:00N 49°43' W 124°45'611.2
2017-Sep-16 06:30N 49°47' W 124°51'611.2
2017-Sep-16 06:00N 49°51' W 124°58'510.4
2017-Sep-16 05:30N 49°54' W 125°04'5 9.7
2017-Sep-16 05:00N 49°58' W 125°09'611.3
2017-Sep-16 04:30N 50°02' W 125°14'612.4
2017-Sep-16 04:00N 50°07' W 125°20'611.9
2017-Sep-16 03:30N 50°13' W 125°23'714.8
2017-Sep-16 03:00N 50°20' W 125°26'813.9
2017-Sep-16 02:28N 50°23' W 125°37'713.9
2017-Sep-16 02:00N 50°23' W 125°47'1514.5
2017-Sep-16 00:56N 50°28' W 126°10'1217.3
2017-Sep-16 00:13N 50°30' W 126°29'716.7
2017-Sep-15 23:49N 50°32' W 126°39'412.0
2017-Sep-15 23:30N 50°35' W 126°42'816.4
2017-Sep-15 22:59N 50°41' W 126°52'918.4
2017-Sep-15 22:30N 50°44' W 127°05'917.9
2017-Sep-15 22:00N 50°47' W 127°18'918.0
2017-Sep-15 21:30N 50°51' W 127°31'918.0
2017-Sep-15 21:01N 50°56' W 127°42'713.8
2017-Sep-15 20:30N 51°01' W 127°51'713.2
2017-Sep-15 20:00N 51°05' W 127°59'713.5
2017-Sep-15 19:30N 51°09' W 128°07'713.4
2017-Sep-15 19:00N 51°13' W 128°16'713.1
2017-Sep-15 18:30N 51°17' W 128°24'713.1
2017-Sep-15 18:01N 51°21' W 128°33'713.2
2017-Sep-15 17:30N 51°24' W 128°42'714.2
2017-Sep-15 17:00N 51°28' W 128°51'815.6
2017-Sep-15 16:31N 51°32' W 129°02'815.9
2017-Sep-15 16:00N 51°37' W 129°13'816.0
2017-Sep-15 15:31N 51°41' W 129°23'714.7
2017-Sep-15 15:00N 51°46' W 129°32'715.1
2017-Sep-15 14:30N 51°53' W 129°37'915.1
2017-Sep-15 13:55N 52°01' W 129°43'815.4
2017-Sep-15 13:25N 52°08' W 129°48'716.0
2017-Sep-15 12:58N 52°15' W 129°53'919.0
2017-Sep-15 12:30N 52°23' W 129°59'918.8
2017-Sep-15 12:00N 52°31' W 130°05'918.9
2017-Sep-15 11:30N 52°40' W 130°12'1019.1
2017-Sep-15 11:00N 52°49' W 130°18'1019.2
2017-Sep-15 10:30N 52°57' W 130°25'1919.3
2017-Sep-15 09:31N 53°15' W 130°38'022.0
2017-Sep-15 09:30N 53°15' W 130°38'1019.8
2017-Sep-15 09:00N 53°24' W 130°45'1019.8
2017-Sep-15 08:30N 53°33' W 130°50'1019.8
2017-Sep-15 08:00N 53°43' W 130°53'8522.6
2017-Sep-15 08:00N 53°36' W 130°48'1736.2 300 / 251018.510.8 11.0 9.013.0
2017-Sep-15 07:31N 53°53' W 130°56'1019.5
2017-Sep-15 07:00N 54°02' W 130°59'1019.2
2017-Sep-15 06:30N 54°12' W 131°02'918.9
2017-Sep-15 06:01N 54°21' W 131°07'918.6
2017-Sep-15 05:30N 54°29' W 131°14'1018.0
2017-Sep-15 04:58N 54°39' W 131°16'918.8
2017-Sep-15 04:30N 54°47' W 131°12'918.8
2017-Sep-15 04:00N 54°56' W 131°08'  

Dump ship's entire track history